createdAt,value
2022-11-28T00:01:00.128Z,100956.63
2022-11-28T00:05:48.175Z,100949.69
2022-11-28T00:10:31.231Z,100946.44
2022-11-28T00:15:14.178Z,100931.63
2022-11-28T00:19:57.141Z,100924.97
2022-11-28T00:24:40.887Z,100922.27
2022-11-28T00:29:24.540Z,100921.53
2022-11-28T00:34:07.453Z,100922.58
2022-11-28T00:38:50.546Z,100921.92
2022-11-28T00:43:33.800Z,100918.72
2022-11-28T00:48:16.746Z,100913.22
2022-11-28T00:52:59.712Z,100913.41
2022-11-28T00:57:42.648Z,100907.32
2022-11-28T01:02:25.748Z,100906.19
2022-11-28T01:07:08.750Z,100904.67
2022-11-28T01:11:51.697Z,100901.77
2022-11-28T01:16:34.738Z,100890.57
2022-11-28T01:21:17.828Z,100890.36
2022-11-28T01:26:00.720Z,100878.86
2022-11-28T01:30:43.630Z,100866.42
2022-11-28T01:35:26.605Z,100866.54
2022-11-28T01:40:09.503Z,100855.45
2022-11-28T01:44:52.439Z,100860.52
2022-11-28T01:49:35.372Z,100859.3
2022-11-28T01:54:18.335Z,100855.87
2022-11-28T01:59:01.292Z,100848
2022-11-28T02:03:44.250Z,100841.34
2022-11-28T02:08:27.204Z,100841.3
2022-11-28T02:13:10.217Z,100832.16
2022-11-28T02:17:53.152Z,100822.77
2022-11-28T02:22:36.222Z,100816.91
2022-11-28T02:27:19.241Z,100806.81
2022-11-28T02:32:02.153Z,100808.34
2022-11-28T02:36:45.065Z,100807.47
2022-11-28T02:41:27.978Z,100802.73
2022-11-28T02:46:10.941Z,100811.2
2022-11-28T02:50:53.887Z,100807.69
2022-11-28T02:55:36.833Z,100807.02
2022-11-28T03:00:19.766Z,100805.05
2022-11-28T03:05:02.680Z,100807.24
2022-11-28T03:09:45.603Z,100801.58
2022-11-28T03:14:28.534Z,100796.47
2022-11-28T03:19:11.487Z,100795.64
2022-11-28T03:23:54.399Z,100792.58
2022-11-28T03:28:44.227Z,100791.05
2022-11-28T03:33:27.178Z,100784.17
2022-11-28T03:38:10.134Z,100781.09
2022-11-28T03:42:53.066Z,100777.64
2022-11-28T03:47:36.047Z,100770.05
2022-11-28T03:52:19.034Z,100766.48
2022-11-28T03:57:01.970Z,100765.59
2022-11-28T04:01:44.957Z,100762.19
2022-11-28T04:06:27.899Z,100756.31
2022-11-28T04:11:10.883Z,100749.33
2022-11-28T04:15:53.954Z,100742.35
2022-11-28T04:20:36.954Z,100738.78
2022-11-28T04:25:19.926Z,100744.38
2022-11-28T04:30:02.889Z,100738.23
2022-11-28T04:34:46.318Z,100738.5
2022-11-28T04:39:29.281Z,100742.52
2022-11-28T04:44:12.253Z,100740.42
2022-11-28T04:48:55.213Z,100734.82
2022-11-28T04:53:38.179Z,100738.25
2022-11-28T04:58:21.111Z,100734.73
2022-11-28T05:03:04.072Z,100731.33
2022-11-28T05:07:47.192Z,100733.19
2022-11-28T05:12:30.286Z,100730.25
2022-11-28T05:17:13.227Z,100729.25
2022-11-28T05:21:56.207Z,100735.84
2022-11-28T05:26:39.196Z,100737.77
2022-11-28T05:31:22.307Z,100731.17
2022-11-28T05:36:12.759Z,100732.39
2022-11-28T05:40:56.077Z,100734.52
2022-11-28T05:45:39.131Z,100722.7
2022-11-28T05:50:22.158Z,100721.08
2022-11-28T05:55:05.140Z,100717.44
2022-11-28T05:59:48.082Z,100714.69
2022-11-28T06:04:31.240Z,100713.91
2022-11-28T06:09:14.375Z,100703.95
2022-11-28T06:13:57.340Z,100704.61
2022-11-28T06:18:40.324Z,100702.19
2022-11-28T06:23:23.295Z,100700.14
2022-11-28T06:28:06.290Z,100690.3
2022-11-28T06:32:49.266Z,100693.63
2022-11-28T06:37:32.229Z,100695.09
2022-11-28T06:42:15.158Z,100689.31
2022-11-28T06:46:58.144Z,100687.73
2022-11-28T06:51:41.086Z,100688.28
2022-11-28T06:56:24.030Z,100686.78
2022-11-28T07:01:07.318Z,100687.94
2022-11-28T07:05:50.478Z,100685.63
2022-11-28T07:10:33.541Z,100688.48
2022-11-28T07:15:16.515Z,100683.71
2022-11-28T07:19:59.837Z,100685.3
2022-11-28T07:24:42.847Z,100689.59
2022-11-28T07:29:26.020Z,100685.17
2022-11-28T07:34:09.059Z,100682.72
2022-11-28T07:38:53.312Z,100684.42
2022-11-28T07:43:36.237Z,100681.02
2022-11-28T07:48:19.230Z,100675.66
2022-11-28T07:53:08.998Z,100674.71
2022-11-28T07:57:52.131Z,100681.27
2022-11-28T08:02:35.531Z,100676.16
2022-11-28T08:07:18.947Z,100672.77
2022-11-28T08:12:02.209Z,100653.13
2022-11-28T08:16:45.354Z,100658.92
2022-11-28T08:21:31.856Z,100650.53
2022-11-28T08:26:16.084Z,100653.43
2022-11-28T08:30:59.322Z,100649.53
2022-11-28T08:35:45.352Z,100641.66
2022-11-28T08:40:33.508Z,100639.14
2022-11-28T08:45:19.527Z,100639.34
2022-11-28T08:50:02.518Z,100630.25
2022-11-28T08:54:55.777Z,100632.92
2022-11-28T08:59:38.843Z,100628.66
2022-11-28T09:04:22.094Z,100623.66
2022-11-28T09:09:05.177Z,100621.11
2022-11-28T09:13:48.378Z,100613.99
2022-11-28T09:18:31.567Z,100609.45
2022-11-28T09:23:14.573Z,100611.36
2022-11-28T09:27:57.548Z,100612.19
2022-11-28T09:32:40.641Z,100611.18
2022-11-28T09:37:23.668Z,100598.55
2022-11-28T09:42:09.182Z,100594.95
2022-11-28T09:46:52.176Z,100589.48
2022-11-28T09:51:35.412Z,100578.5
2022-11-28T09:56:18.656Z,100566.7
2022-11-28T10:01:01.630Z,100572.52
2022-11-28T10:05:44.739Z,100565.22
2022-11-28T10:10:27.903Z,100550.88
2022-11-28T10:15:11.045Z,100552.31
2022-11-28T10:19:58.567Z,100550.05
2022-11-28T10:24:42.466Z,100537.56
2022-11-28T10:29:28.133Z,100534.78
2022-11-28T10:34:11.132Z,100533.06
2022-11-28T10:38:56.793Z,100540.88
2022-11-28T10:43:42.318Z,100528.08
2022-11-28T10:48:42.143Z,100517.94
2022-11-28T10:53:25.820Z,100509.81
2022-11-28T10:58:09.139Z,100509.33
2022-11-28T11:02:54.857Z,100508.73
2022-11-28T11:07:39.270Z,100507.98
2022-11-28T11:12:22.519Z,100492.98
2022-11-28T11:17:05.770Z,100493.98
2022-11-28T11:21:48.737Z,100488.55
2022-11-28T11:26:31.731Z,100476.51
2022-11-28T11:31:14.887Z,100481.56
2022-11-28T11:35:58.115Z,100482.19
2022-11-28T11:40:41.151Z,100473.2
2022-11-28T11:45:24.348Z,100460.84
2022-11-28T11:50:07.401Z,100461.75
2022-11-28T11:54:50.551Z,100455.28
2022-11-28T11:59:33.682Z,100468.98
2022-11-28T12:04:47.183Z,100435.63
2022-11-28T12:09:37.220Z,100437.56
2022-11-28T12:14:20.342Z,100440.67
2022-11-28T12:19:03.314Z,100438.49
2022-11-28T12:23:46.289Z,100433.17
2022-11-28T12:28:29.278Z,100440.1
2022-11-28T12:33:13.483Z,100439.31
2022-11-28T12:38:12.903Z,100439.94
2022-11-28T12:42:56.043Z,100433.64
2022-11-28T12:47:39.220Z,100431.05
2022-11-28T12:52:22.331Z,100429.27
2022-11-28T12:57:05.321Z,100433.27
2022-11-28T13:01:48.598Z,100425.51
2022-11-28T13:06:31.871Z,100420.36
2022-11-28T13:11:15.337Z,100422.16
2022-11-28T13:15:58.561Z,100412.19
2022-11-28T13:20:41.651Z,100417.18
2022-11-28T13:25:25.077Z,100418.93
2022-11-28T13:30:08.631Z,100417.33
2022-11-28T13:34:51.967Z,100409.28
2022-11-28T13:39:35.874Z,100410.78
2022-11-28T13:44:19.104Z,100402.39
2022-11-28T13:49:22.515Z,100405.78
2022-11-28T13:54:05.639Z,100408.97
2022-11-28T13:58:48.813Z,100414.15
2022-11-28T14:03:32.193Z,100413.5
2022-11-28T14:08:15.393Z,100417.86
2022-11-28T14:13:01.889Z,100412.77
2022-11-28T14:17:45.331Z,100423.7
2022-11-28T14:22:28.616Z,100417.92
2022-11-28T14:27:11.906Z,100418.55
2022-11-28T14:32:31.975Z,100418.45
2022-11-28T14:37:15.349Z,100426.86
2022-11-28T14:41:59.324Z,100420.41
2022-11-28T14:46:42.804Z,100424.4
2022-11-28T14:51:26.224Z,100429.94
2022-11-28T14:56:09.291Z,100434.11
2022-11-28T15:00:52.331Z,100422.39
2022-11-28T15:05:35.413Z,100422.64
2022-11-28T15:10:18.696Z,100436.23
2022-11-28T15:15:03.168Z,100432.54
2022-11-28T15:19:46.376Z,100434.16
2022-11-28T15:24:29.582Z,100436.97
2022-11-28T15:29:12.645Z,100433.78
2022-11-28T15:33:55.693Z,100431.84
2022-11-28T15:38:38.759Z,100435.66
2022-11-28T15:43:22.039Z,100431.05
2022-11-28T15:48:05.225Z,100442.63
2022-11-28T15:52:48.420Z,100441.48
2022-11-28T15:57:31.534Z,100438.44
2022-11-28T16:02:14.768Z,100440.17
2022-11-28T16:06:58.641Z,100442.3
2022-11-28T16:11:41.869Z,100446.86
2022-11-28T16:16:27.538Z,100447.94
2022-11-28T16:21:11.012Z,100449.5
2022-11-28T16:25:54.184Z,100445.75
2022-11-28T16:30:39.772Z,100448.34
2022-11-28T16:35:22.820Z,100445.02
2022-11-28T16:40:05.901Z,100441.38
2022-11-28T16:44:49.224Z,100445.98
2022-11-28T16:49:32.381Z,100451.13
2022-11-28T16:54:15.596Z,100450.88
2022-11-28T16:58:58.637Z,100436.45
2022-11-28T17:03:41.683Z,100440.95
2022-11-28T17:08:31.413Z,100434.78
2022-11-28T17:13:14.556Z,100430.72
2022-11-28T17:17:57.607Z,100440.63
2022-11-28T17:22:42.464Z,100436.84
2022-11-28T17:27:25.653Z,100442.41
2022-11-28T17:32:08.726Z,100439.16
2022-11-28T17:36:51.776Z,100445.36
2022-11-28T17:41:35.316Z,100436.77
2022-11-28T17:46:18.537Z,100434.19
2022-11-28T17:51:02.044Z,100431.37
2022-11-28T17:55:45.309Z,100425.91
2022-11-28T18:00:28.687Z,100430.15
2022-11-28T18:05:11.820Z,100437.7
2022-11-28T18:09:55.991Z,100438.16
2022-11-28T18:14:41.028Z,100439.05
2022-11-28T18:19:24.214Z,100431.77
2022-11-28T18:24:07.312Z,100441.01
2022-11-28T18:28:50.334Z,100433.45
2022-11-28T18:33:33.266Z,100428.95
2022-11-28T18:38:16.259Z,100430.55
2022-11-28T18:42:59.265Z,100424.05
2022-11-28T18:47:42.428Z,100427.55
2022-11-28T18:52:25.420Z,100426.42
2022-11-28T18:57:08.460Z,100423.84
2022-11-28T19:01:51.660Z,100425.95
2022-11-28T19:06:34.704Z,100426.34
2022-11-28T19:11:17.664Z,100422.87
2022-11-28T19:16:00.642Z,100426.12
2022-11-28T19:20:43.685Z,100425.5
2022-11-28T19:25:26.602Z,100431.77
2022-11-28T19:30:09.702Z,100429
2022-11-28T19:34:52.688Z,100430.14
2022-11-28T19:39:37.588Z,100432.91
2022-11-28T19:44:21.079Z,100428.86
2022-11-28T19:49:04.246Z,100427.45
2022-11-28T19:53:47.406Z,100431.38
2022-11-28T19:58:30.696Z,100435.39
2022-11-28T20:03:13.975Z,100432.84
2022-11-28T20:08:00.110Z,100430.55
2022-11-28T20:12:43.420Z,100434.14
2022-11-28T20:17:26.538Z,100434.52
2022-11-28T20:22:09.639Z,100427.33
2022-11-28T20:26:52.816Z,100436.78
2022-11-28T20:31:36.047Z,100432.61
2022-11-28T20:36:19.174Z,100433.13
2022-11-28T20:41:02.317Z,100429.08
2022-11-28T20:45:45.561Z,100430.04
2022-11-28T20:50:28.695Z,100423.89
2022-11-28T20:55:12.012Z,100439.06
2022-11-28T20:59:55.134Z,100433.2
2022-11-28T21:04:38.190Z,100441.98
2022-11-28T21:09:21.569Z,100443.94
2022-11-28T21:14:04.676Z,100436.44
2022-11-28T21:18:47.924Z,100435.8
2022-11-28T21:23:30.969Z,100444.28
2022-11-28T21:28:14.046Z,100447.39
2022-11-28T21:32:57.295Z,100451.05
2022-11-28T21:37:40.344Z,100442.38
2022-11-28T21:42:23.457Z,100441.13
2022-11-28T21:47:06.594Z,100434.03
2022-11-28T21:51:49.648Z,100434.63
2022-11-28T21:56:32.762Z,100427.73
2022-11-28T22:01:15.905Z,100423.96
2022-11-28T22:05:59.054Z,100430.7
2022-11-28T22:10:42.209Z,100421.78
2022-11-28T22:15:25.303Z,100424.8
2022-11-28T22:20:08.442Z,100429.22
2022-11-28T22:24:51.939Z,100428.84
2022-11-28T22:29:35.172Z,100429.97
2022-11-28T22:34:18.248Z,100432.86
2022-11-28T22:39:01.308Z,100433.95
2022-11-28T22:43:44.344Z,100432.2
2022-11-28T22:48:27.538Z,100430.14
2022-11-28T22:53:10.619Z,100422.52
2022-11-28T22:57:53.726Z,100421.88
2022-11-28T23:02:37.245Z,100418.96
2022-11-28T23:07:20.952Z,100420.91
2022-11-28T23:12:04.169Z,100421.47
2022-11-28T23:16:47.462Z,100418.23
2022-11-28T23:21:30.814Z,100425.19
2022-11-28T23:26:13.982Z,100423.88
2022-11-28T23:30:57.224Z,100426.28
2022-11-28T23:35:40.698Z,100428.1
2022-11-28T23:40:23.661Z,100428.06
2022-11-28T23:45:06.708Z,100420.97
2022-11-28T23:49:49.853Z,100423.77
2022-11-28T23:54:32.994Z,100420.41
2022-11-28T23:59:16.139Z,100417.45
